Time;durP1;ratioP1;P1;durP2;ratioP2;P2;SDS_P1;SDS_P2;PMS_P1;PMS_P2;Temp;Humidity;BMP_temperature;BMP_pressure;BME280_temperature;BME280_humidity;BME280_pressure;Samples;Min_cycle;Max_cycle;Signal;HPM_P1;HPM_P2
2021/05/15 00:01:03;;;;;;;6.18;2.80;;;9.70;99.90;;;;;;5086617;28;20039;-82
2021/05/15 00:03:28;;;;;;;4.25;2.47;;;9.60;99.90;;;;;;5083717;28;20085;-82
2021/05/15 00:05:54;;;;;;;5.97;1.92;;;9.60;99.90;;;;;;5085696;28;20103;-82
2021/05/15 00:08:22;;;;;;;2.95;2.13;;;9.60;99.90;;;;;;5080718;28;20430;-83
2021/05/15 00:10:48;;;;;;;3.65;2.15;;;9.60;99.90;;;;;;5083955;28;20111;-83
2021/05/15 00:13:15;;;;;;;3.10;2.22;;;9.60;99.90;;;;;;5077260;28;20398;-82
2021/05/15 00:15:40;;;;;;;4.68;2.17;;;9.60;99.90;;;;;;5086377;28;20088;-81
2021/05/15 00:18:06;;;;;;;5.22;2.63;;;9.60;99.90;;;;;;5088316;28;20036;-81
2021/05/15 00:20:31;;;;;;;6.82;2.63;;;9.70;99.90;;;;;;5085783;28;20019;-82
2021/05/15 00:22:57;;;;;;;3.78;1.95;;;9.70;99.90;;;;;;5085924;28;20081;-81
2021/05/15 00:25:22;;;;;;;2.50;1.65;;;9.70;99.90;;;;;;5087578;28;20103;-81
2021/05/15 00:27:48;;;;;;;6.22;1.83;;;9.70;99.90;;;;;;5087767;28;20070;-81
2021/05/15 00:30:16;;;;;;;5.00;2.65;;;9.70;99.90;;;;;;5086953;28;20062;-81
2021/05/15 00:32:41;;;;;;;5.95;1.70;;;9.60;99.90;;;;;;5088756;28;20036;-81
2021/05/15 00:35:08;;;;;;;1.98;1.60;;;9.60;99.90;;;;;;5078001;28;20475;-81
2021/05/15 00:37:34;;;;;;;2.00;1.52;;;9.40;99.90;;;;;;5086950;28;20073;-81
2021/05/15 00:40:01;;;;;;;9.38;1.77;;;9.30;99.90;;;;;;5086283;28;20036;-81
2021/05/15 00:42:26;;;;;;;2.35;1.60;;;9.20;99.90;;;;;;5080079;28;20038;-81
2021/05/15 00:44:52;;;;;;;4.40;2.00;;;9.10;99.90;;;;;;5085505;28;20016;-81
2021/05/15 00:47:23;;;;;;;3.78;2.03;;;9.00;99.90;;;;;;5085167;28;20020;-81
2021/05/15 00:49:50;;;;;;;2.65;1.58;;;9.00;99.90;;;;;;5085598;28;20020;-81
2021/05/15 00:52:17;;;;;;;3.65;1.83;;;8.90;99.90;;;;;;5085992;28;20073;-81
2021/05/15 00:54:43;;;;;;;2.20;1.55;;;8.80;99.90;;;;;;5087206;28;20046;-81
2021/05/15 00:57:11;;;;;;;1.85;1.55;;;8.80;99.90;;;;;;5087915;28;20035;-81
2021/05/15 00:59:38;;;;;;;2.42;1.67;;;8.70;99.90;;;;;;5083151;28;20062;-81
2021/05/15 01:02:05;;;;;;;3.47;1.92;;;8.60;99.90;;;;;;5087286;28;20103;-81
2021/05/15 01:04:30;;;;;;;2.33;1.67;;;8.60;99.90;;;;;;5085888;28;20024;-81
2021/05/15 01:06:58;;;;;;;3.70;1.90;;;8.50;99.90;;;;;;5087401;28;20020;-81
2021/05/15 01:09:23;;;;;;;3.30;1.65;;;8.50;99.90;;;;;;5087609;28;20066;-82
2021/05/15 01:11:49;;;;;;;2.60;1.42;;;8.40;99.90;;;;;;5089546;28;20055;-81
2021/05/15 01:14:15;;;;;;;3.58;1.90;;;8.40;99.90;;;;;;5084946;28;20032;-81
2021/05/15 01:16:41;;;;;;;2.97;1.75;;;8.30;99.90;;;;;;5080477;28;20033;-81
2021/05/15 01:19:07;;;;;;;2.38;1.85;;;8.30;99.90;;;;;;5087147;28;20020;-81
2021/05/15 01:21:33;;;;;;;2.42;1.67;;;8.20;99.90;;;;;;5087453;28;20028;-81
2021/05/15 01:23:59;;;;;;;2.95;1.67;;;8.20;99.90;;;;;;5087301;28;20453;-81
2021/05/15 01:26:27;;;;;;;1.98;1.40;;;8.10;99.90;;;;;;5087058;28;20104;-81
2021/05/15 01:29:12;;;;;;;2.20;1.85;;;8.10;99.90;;;;;;5090582;28;20032;-81
2021/05/15 01:31:38;;;;;;;2.85;1.63;;;8.00;99.90;;;;;;5087919;28;20031;-81
2021/05/15 01:34:04;;;;;;;2.42;1.63;;;8.00;99.90;;;;;;5083022;28;20028;-81
2021/05/15 01:36:34;;;;;;;2.40;1.70;;;8.00;99.90;;;;;;5089706;28;20121;-81
2021/05/15 01:38:59;;;;;;;5.07;2.45;;;8.00;99.90;;;;;;5086747;28;20036;-81
2021/05/15 01:41:25;;;;;;;2.78;1.58;;;7.90;99.90;;;;;;5089637;28;20498;-81
2021/05/15 01:43:50;;;;;;;3.40;1.65;;;7.90;99.90;;;;;;5089703;28;20099;-81
2021/05/15 01:46:15;;;;;;;4.93;1.95;;;7.80;99.90;;;;;;5089824;28;20439;-81
2021/05/15 01:48:41;;;;;;;3.33;1.80;;;7.70;99.90;;;;;;5088262;28;20069;-81
2021/05/15 01:51:13;;;;;;;3.28;1.65;;;7.70;99.90;;;;;;5084432;28;20753;-81
2021/05/15 01:53:41;;;;;;;3.75;1.58;;;7.60;99.90;;;;;;5083619;28;20084;-81
2021/05/15 01:56:09;;;;;;;1.27;1.17;;;7.60;99.90;;;;;;5086991;28;20513;-81
2021/05/15 01:58:35;;;;;;;3.13;1.80;;;7.60;99.90;;;;;;5084890;28;20942;-81
2021/05/15 02:01:01;;;;;;;1.40;1.27;;;7.60;99.90;;;;;;5083587;28;20024;-81
2021/05/15 02:03:27;;;;;;;2.10;1.48;;;7.50;99.90;;;;;;5086683;28;20053;-81
2021/05/15 02:05:54;;;;;;;2.90;1.90;;;7.50;99.90;;;;;;5086509;28;20051;-81
2021/05/15 02:08:21;;;;;;;5.57;1.67;;;7.40;99.90;;;;;;5082270;28;20474;-81
2021/05/15 02:10:48;;;;;;;2.67;1.60;;;7.40;99.90;;;;;;5085719;28;20059;-82
2021/05/15 02:13:14;;;;;;;1.30;1.20;;;7.40;99.90;;;;;;5084392;28;20028;-81
2021/05/15 02:15:40;;;;;;;4.03;1.92;;;7.40;99.90;;;;;;5080270;28;20033;-82
2021/05/15 02:18:07;;;;;;;2.17;1.40;;;7.40;99.90;;;;;;5088781;28;20036;-81
2021/05/15 02:20:33;;;;;;;1.85;1.38;;;7.40;99.90;;;;;;5086801;28;20036;-81
2021/05/15 02:22:59;;;;;;;2.65;1.67;;;7.30;99.90;;;;;;5082106;28;20041;-81
2021/05/15 02:25:26;;;;;;;4.55;1.85;;;7.30;99.90;;;;;;5083051;28;20024;-81
2021/05/15 02:27:52;;;;;;;1.55;1.42;;;7.30;99.90;;;;;;5081899;28;20078;-81
2021/05/15 02:30:19;;;;;;;2.95;1.88;;;7.20;99.90;;;;;;5086168;28;20522;-81
2021/05/15 02:32:45;;;;;;;3.13;1.65;;;7.20;99.90;;;;;;5087759;28;20039;-81
2021/05/15 02:35:11;;;;;;;1.83;1.38;;;7.20;99.90;;;;;;5084659;28;20022;-81
2021/05/15 02:37:37;;;;;;;1.45;1.35;;;7.20;99.90;;;;;;5086616;28;20051;-81
2021/05/15 02:40:04;;;;;;;2.80;1.88;;;7.10;99.90;;;;;;5084299;28;20032;-81
2021/05/15 02:42:30;;;;;;;1.20;1.10;;;7.10;99.90;;;;;;5076415;28;20443;-81
2021/05/15 02:45:05;;;;;;;3.10;1.77;;;7.10;99.90;;;;;;5088363;28;20024;-82
2021/05/15 02:47:30;;;;;;;2.88;1.80;;;7.10;99.90;;;;;;5078642;28;20020;-80
2021/05/15 02:49:56;;;;;;;1.60;1.50;;;7.10;99.90;;;;;;5088836;28;20776;-81
2021/05/15 02:52:21;;;;;;;3.15;1.48;;;7.10;99.90;;;;;;5070141;28;505560;-82
2021/05/15 02:54:47;;;;;;;2.20;1.77;;;7.10;99.90;;;;;;5086730;28;20438;-81
2021/05/15 02:57:12;;;;;;;2.60;1.63;;;7.00;99.90;;;;;;5088611;28;20097;-81
2021/05/15 02:59:38;;;;;;;2.53;1.20;;;7.00;99.90;;;;;;5081851;28;20028;-82
2021/05/15 03:02:04;;;;;;;4.65;1.38;;;7.00;99.90;;;;;;5087582;28;20032;-82
2021/05/15 03:04:30;;;;;;;3.45;1.90;;;7.00;99.90;;;;;;5082895;28;20028;-82
2021/05/15 03:06:56;;;;;;;2.28;1.35;;;6.90;99.90;;;;;;5085791;28;20047;-82
2021/05/15 03:09:21;;;;;;;2.75;1.58;;;6.90;99.90;;;;;;5088171;28;20483;-82
2021/05/15 03:11:47;;;;;;;3.42;1.60;;;6.90;99.90;;;;;;5087448;28;20032;-82
2021/05/15 03:14:12;;;;;;;1.85;1.38;;;6.90;99.90;;;;;;5089849;28;20032;-82
2021/05/15 03:16:38;;;;;;;1.35;1.05;;;6.90;99.90;;;;;;5084634;28;20024;-82
2021/05/15 03:19:04;;;;;;;3.05;2.20;;;6.90;99.90;;;;;;5086062;28;20044;-82
2021/05/15 03:21:29;;;;;;;2.05;1.55;;;6.90;99.90;;;;;;5082505;28;20032;-82
2021/05/15 03:23:55;;;;;;;3.22;1.48;;;6.80;99.90;;;;;;5088472;28;20047;-82
2021/05/15 03:26:20;;;;;;;1.42;1.23;;;6.90;99.90;;;;;;5086375;28;20024;-82
2021/05/15 03:28:46;;;;;;;2.20;1.77;;;6.90;99.90;;;;;;5085270;28;20104;-82
2021/05/15 03:31:12;;;;;;;3.30;1.35;;;6.90;99.90;;;;;;5087359;28;20034;-82
2021/05/15 03:33:37;;;;;;;1.40;1.00;;;6.90;99.90;;;;;;5084342;28;20028;-82
2021/05/15 03:36:04;;;;;;;2.35;1.40;;;6.90;99.90;;;;;;5087576;28;20486;-82
2021/05/15 03:38:30;;;;;;;1.90;1.30;;;6.90;99.90;;;;;;5083067;28;20031;-81
2021/05/15 03:40:56;;;;;;;3.78;1.95;;;6.90;99.90;;;;;;5088469;28;20024;-81
2021/05/15 03:43:21;;;;;;;1.52;1.27;;;6.90;99.90;;;;;;5077416;28;20025;-81
2021/05/15 03:45:47;;;;;;;2.40;1.52;;;6.90;99.90;;;;;;5081392;28;20020;-81
2021/05/15 03:48:19;;;;;;;1.48;1.05;;;6.90;99.90;;;;;;5083009;28;20387;-80
2021/05/15 03:50:45;;;;;;;2.05;1.70;;;6.90;99.90;;;;;;5083530;28;20035;-81
2021/05/15 03:53:11;;;;;;;2.35;1.27;;;7.00;99.90;;;;;;5085215;28;20043;-81
2021/05/15 03:55:36;;;;;;;2.53;1.30;;;7.00;99.90;;;;;;5084961;28;20024;-81
2021/05/15 03:58:03;;;;;;;2.03;1.42;;;7.00;99.90;;;;;;5088208;28;20032;-81
2021/05/15 04:00:29;;;;;;;2.78;1.73;;;7.00;99.90;;;;;;5085919;28;20035;-81
2021/05/15 04:02:54;;;;;;;2.97;1.52;;;7.00;99.90;;;;;;5077959;28;20028;-81
2021/05/15 04:05:20;;;;;;;2.72;1.70;;;7.10;99.90;;;;;;5087063;28;20020;-81
2021/05/15 04:07:45;;;;;;;2.58;1.40;;;7.20;99.90;;;;;;5085154;28;20066;-82
2021/05/15 04:10:11;;;;;;;1.95;1.58;;;7.20;99.90;;;;;;5086830;28;20027;-82
2021/05/15 04:12:44;;;;;;;4.10;1.73;;;7.30;99.90;;;;;;5082602;28;20595;-82
2021/05/15 04:15:12;;;;;;;2.85;1.80;;;7.30;99.90;;;;;;5086201;28;20051;-82
2021/05/15 04:17:38;;;;;;;3.88;2.45;;;7.30;99.90;;;;;;5086403;28;20035;-82
2021/05/15 04:20:04;;;;;;;3.20;2.13;;;7.40;99.90;;;;;;5085311;28;20036;-82
2021/05/15 04:22:30;;;;;;;2.95;1.75;;;7.50;99.90;;;;;;5084314;28;20016;-82
2021/05/15 04:24:57;;;;;;;4.60;2.35;;;7.50;99.90;;;;;;5085576;28;20050;-82
2021/05/15 04:27:23;;;;;;;5.15;2.45;;;7.60;99.90;;;;;;5077160;28;20035;-82
2021/05/15 04:29:48;;;;;;;10.35;2.38;;;7.70;99.90;;;;;;5084650;28;20036;-82
2021/05/15 04:32:14;;;;;;;6.47;3.10;;;7.80;99.90;;;;;;5080808;28;20031;-82
2021/05/15 04:34:40;;;;;;;4.10;2.47;;;7.90;99.90;;;;;;5087056;28;20028;-82
2021/05/15 04:37:05;;;;;;;5.60;3.50;;;7.90;99.90;;;;;;5081768;28;20028;-82
2021/05/15 04:39:33;;;;;;;6.82;3.85;;;8.10;99.90;;;;;;5085849;28;20024;-82
2021/05/15 04:42:00;;;;;;;5.35;3.00;;;8.20;99.90;;;;;;5082456;28;20024;-82
2021/05/15 04:44:26;;;;;;;5.22;2.90;;;8.40;99.90;;;;;;5084978;28;20368;-82
2021/05/15 04:46:51;;;;;;;5.32;2.95;;;8.50;99.90;;;;;;5087412;28;20085;-82
2021/05/15 04:49:18;;;;;;;8.57;3.33;;;8.60;99.90;;;;;;5086090;28;20081;-82
2021/05/15 04:51:44;;;;;;;8.10;3.15;;;8.70;99.90;;;;;;5086375;28;20036;-82
2021/05/15 04:54:10;;;;;;;4.70;2.67;;;8.70;99.90;;;;;;5086350;28;20027;-82
2021/05/15 04:56:36;;;;;;;8.00;3.25;;;8.70;99.90;;;;;;5085965;28;20020;-82
2021/05/15 04:59:02;;;;;;;7.55;3.00;;;8.70;99.90;;;;;;5083666;28;20032;-82
2021/05/15 05:01:27;;;;;;;11.20;3.30;;;8.80;99.90;;;;;;5085922;28;20028;-82
2021/05/15 05:03:53;;;;;;;9.82;3.05;;;8.90;99.90;;;;;;5085315;28;20034;-82
2021/05/15 05:06:18;;;;;;;4.75;3.08;;;9.00;99.90;;;;;;5086640;28;20115;-82
2021/05/15 05:08:44;;;;;;;6.75;2.85;;;9.10;99.90;;;;;;5087114;28;20103;-82
2021/05/15 05:11:10;;;;;;;6.20;2.53;;;9.20;99.90;;;;;;5084674;28;20527;-81
2021/05/15 05:13:35;;;;;;;6.15;3.55;;;9.30;99.90;;;;;;5082125;28;20020;-81
2021/05/15 05:16:01;;;;;;;4.32;2.72;;;9.30;99.90;;;;;;5083779;28;20024;-81
2021/05/15 05:18:26;;;;;;;5.65;3.25;;;9.40;99.90;;;;;;5084805;28;20082;-81
2021/05/15 05:20:52;;;;;;;5.07;3.10;;;9.40;99.90;;;;;;5080959;28;20390;-82
2021/05/15 05:23:17;;;;;;;4.72;2.67;;;9.50;99.90;;;;;;5085839;28;20027;-81
2021/05/15 05:25:43;;;;;;;9.63;3.30;;;9.60;99.90;;;;;;5082080;28;20024;-81
2021/05/15 05:28:09;;;;;;;6.20;2.20;;;9.80;99.90;;;;;;5083994;28;20042;-81
2021/05/15 05:30:35;;;;;;;4.47;2.50;;;9.90;99.90;;;;;;5080918;28;20103;-81
2021/05/15 05:33:02;;;;;;;3.72;1.92;;;10.10;99.90;;;;;;5081314;28;20558;-81
2021/05/15 05:35:27;;;;;;;2.95;2.00;;;10.30;99.90;;;;;;5085340;28;20047;-81
2021/05/15 05:37:53;;;;;;;2.80;1.92;;;10.50;99.90;;;;;;5083987;28;20036;-81
2021/05/15 05:40:19;;;;;;;5.50;1.90;;;10.60;99.90;;;;;;5084182;28;20633;-81
2021/05/15 05:42:44;;;;;;;2.97;2.15;;;10.80;99.90;;;;;;5084669;28;20077;-81
2021/05/15 05:45:14;;;;;;;4.70;2.22;;;11.00;99.90;;;;;;5090192;28;20016;-82
2021/05/15 05:47:39;;;;;;;3.22;2.55;;;11.10;99.90;;;;;;5083329;28;20047;-81
2021/05/15 05:50:06;;;;;;;4.10;2.28;;;11.30;99.90;;;;;;5087746;28;20557;-81
2021/05/15 05:52:31;;;;;;;4.90;2.53;;;11.40;99.90;;;;;;5089941;28;20044;-82
2021/05/15 05:55:04;;;;;;;4.88;2.10;;;11.50;99.90;;;;;;5089849;28;20032;-82
2021/05/15 05:57:29;;;;;;;5.03;2.70;;;11.60;99.90;;;;;;5087262;28;20028;-81
2021/05/15 05:59:55;;;;;;;4.55;2.25;;;11.70;99.90;;;;;;5088139;28;20055;-82
2021/05/15 06:02:20;;;;;;;10.13;3.22;;;11.80;99.90;;;;;;5080545;28;20024;-81
2021/05/15 06:04:46;;;;;;;4.85;2.78;;;11.90;99.90;;;;;;5083139;28;20025;-80
2021/05/15 06:07:13;;;;;;;5.78;2.72;;;11.90;99.90;;;;;;5088485;28;20483;-84
2021/05/15 06:09:39;;;;;;;4.82;2.05;;;11.90;99.90;;;;;;5088769;28;20395;-81
2021/05/15 06:12:04;;;;;;;5.85;2.75;;;11.90;99.90;;;;;;5088967;28;20483;-86
2021/05/15 06:14:30;;;;;;;4.88;3.10;;;12.00;99.90;;;;;;5084118;28;20024;-87
2021/05/15 06:16:55;;;;;;;7.63;3.13;;;12.10;99.90;;;;;;5080862;28;20111;-88
2021/05/15 06:19:21;;;;;;;5.78;3.22;;;12.10;99.90;;;;;;5090848;28;20119;-85
2021/05/15 06:21:46;;;;;;;13.60;3.05;;;12.20;99.90;;;;;;5085362;28;20020;-86
2021/05/15 06:24:12;;;;;;;5.47;3.30;;;12.30;99.90;;;;;;5084048;28;20680;-90
2021/05/15 06:26:38;;;;;;;6.38;3.38;;;12.40;99.90;;;;;;5088641;28;20016;-84
2021/05/15 06:29:04;;;;;;;4.75;3.47;;;12.30;99.90;;;;;;5087925;28;20033;-85
2021/05/15 06:31:30;;;;;;;5.65;3.55;;;12.30;99.90;;;;;;5086372;28;20020;-88
2021/05/15 06:33:55;;;;;;;5.30;2.83;;;12.30;99.90;;;;;;5085448;28;20026;-83
2021/05/15 06:36:21;;;;;;;7.32;3.28;;;12.30;99.90;;;;;;5091202;28;20024;-76
2021/05/15 06:38:46;;;;;;;6.32;3.63;;;12.30;99.90;;;;;;5089256;28;20471;-81
2021/05/15 06:41:12;;;;;;;5.25;3.05;;;12.30;99.90;;;;;;5084711;28;20030;-83
2021/05/15 06:43:37;;;;;;;5.57;3.42;;;12.40;99.90;;;;;;5086419;28;20533;-84
2021/05/15 06:46:03;;;;;;;4.38;3.00;;;12.50;99.90;;;;;;5088626;28;20471;-84
2021/05/15 06:48:28;;;;;;;6.55;3.30;;;12.60;99.90;;;;;;5090961;28;20024;-87
2021/05/15 06:50:57;;;;;;;5.22;3.40;;;12.70;99.90;;;;;;5088595;28;20498;-83
2021/05/15 06:53:23;;;;;;;9.90;2.88;;;12.90;99.90;;;;;;5090332;28;20024;-86
2021/05/15 06:55:48;;;;;;;3.60;2.60;;;13.00;99.90;;;;;;5088523;28;20054;-83
2021/05/15 06:58:22;;;;;;;7.35;3.17;;;13.10;99.90;;;;;;5088356;28;20028;-85
2021/05/15 07:00:47;;;;;;;4.28;2.72;;;13.20;99.90;;;;;;5086601;28;20031;-85
2021/05/15 07:03:13;;;;;;;5.10;3.10;;;13.30;99.90;;;;;;5090718;28;20028;-86
2021/05/15 07:05:38;;;;;;;5.30;2.95;;;13.30;99.90;;;;;;5076368;28;20199;-79
2021/05/15 07:08:04;;;;;;;5.25;3.22;;;13.30;99.90;;;;;;5085663;28;20028;-80
2021/05/15 07:10:30;;;;;;;9.57;3.42;;;13.40;99.90;;;;;;5081162;28;20021;-85
2021/05/15 07:12:55;;;;;;;4.10;2.80;;;13.60;99.90;;;;;;5088198;28;20068;-83
2021/05/15 07:15:21;;;;;;;4.97;2.75;;;13.70;99.90;;;;;;5081880;28;20035;-79
2021/05/15 07:17:47;;;;;;;6.30;2.72;;;13.80;99.90;;;;;;5082663;28;20443;-75
2021/05/15 07:20:13;;;;;;;4.72;3.20;;;13.90;99.90;;;;;;5083571;28;20391;-74
2021/05/15 07:22:41;;;;;;;4.60;3.00;;;14.00;99.90;;;;;;5086161;28;20577;-85
2021/05/15 07:25:07;;;;;;;5.22;3.13;;;14.00;99.90;;;;;;5089123;28;20028;-86
2021/05/15 07:27:33;;;;;;;4.18;2.80;;;14.00;99.90;;;;;;5085087;28;20017;-82
2021/05/15 07:30:00;;;;;;;7.28;2.83;;;14.00;99.90;;;;;;5080604;28;20032;-84
2021/05/15 07:32:26;;;;;;;3.70;2.50;;;14.00;99.90;;;;;;5087845;28;20050;-83
2021/05/15 07:34:51;;;;;;;3.33;2.00;;;14.00;99.90;;;;;;5081712;28;20522;-82
2021/05/15 07:37:17;;;;;;;5.22;3.13;;;14.00;99.90;;;;;;5085871;28;20073;-81
2021/05/15 07:39:45;;;;;;;2.97;2.20;;;14.00;99.90;;;;;;5087977;28;20047;-80
2021/05/15 07:42:11;;;;;;;5.10;2.67;;;14.10;99.90;;;;;;5087815;28;20166;-82
2021/05/15 07:44:37;;;;;;;3.60;2.58;;;14.10;99.90;;;;;;5084890;28;20103;-80
2021/05/15 07:47:03;;;;;;;4.13;2.85;;;14.20;99.90;;;;;;5087625;28;20111;-78
2021/05/15 07:49:29;;;;;;;6.95;2.60;;;14.20;99.90;;;;;;5088163;28;20024;-85
2021/05/15 07:51:54;;;;;;;4.10;2.55;;;14.20;99.90;;;;;;5084719;28;20704;-85
2021/05/15 07:54:23;;;;;;;6.05;2.58;;;14.30;99.90;;;;;;5085500;28;20097;-85
2021/05/15 07:56:50;;;;;;;5.35;3.00;;;14.30;99.90;;;;;;5085019;28;20511;-84
2021/05/15 07:59:16;;;;;;;5.70;2.55;;;14.30;99.90;;;;;;5086588;28;20512;-89
2021/05/15 08:01:42;;;;;;;9.38;2.90;;;14.40;99.90;;;;;;5084582;28;20103;-85
2021/05/15 08:04:08;;;;;;;3.33;2.40;;;14.50;99.90;;;;;;5083191;28;20028;-83
2021/05/15 08:06:33;;;;;;;5.72;3.10;;;14.50;99.90;;;;;;5084585;28;20077;-91
2021/05/15 08:08:59;;;;;;;6.18;3.08;;;14.60;99.90;;;;;;5088950;28;20035;-94
2021/05/15 08:11:25;;;;;;;3.30;2.83;;;14.60;99.90;;;;;;5085252;28;20093;-82
2021/05/15 08:13:50;;;;;;;4.03;2.72;;;14.60;99.90;;;;;;5083143;28;20028;-88
2021/05/15 08:16:17;;;;;;;3.92;2.72;;;14.60;99.90;;;;;;5077663;28;20119;-87
2021/05/15 08:18:43;;;;;;;6.10;3.05;;;14.80;99.90;;;;;;5082189;28;20029;-89
2021/05/15 08:21:09;;;;;;;4.65;2.95;;;14.80;99.90;;;;;;5083388;28;20028;-90
2021/05/15 08:23:36;;;;;;;5.05;3.53;;;14.90;99.90;;;;;;5082826;28;20395;-87
2021/05/15 08:26:05;;;;;;;8.95;3.88;;;15.00;99.90;;;;;;5083701;28;20317;-82
2021/05/15 08:28:32;;;;;;;6.20;3.53;;;15.00;99.90;;;;;;5079449;28;20383;-86
2021/05/15 08:30:58;;;;;;;7.05;3.75;;;15.00;99.90;;;;;;5080219;28;20028;-79
2021/05/15 08:33:24;;;;;;;5.20;3.38;;;15.10;99.90;;;;;;5082743;28;20032;-78
2021/05/15 08:35:49;;;;;;;5.70;3.70;;;15.20;99.90;;;;;;5072195;28;20417;-78
2021/05/15 08:38:15;;;;;;;10.13;4.97;;;15.30;99.90;;;;;;5073292;28;20028;-79
2021/05/15 08:40:44;;;;;;;7.32;3.80;;;15.40;99.90;;;;;;5074413;28;20475;-77
2021/05/15 08:43:12;;;;;;;6.07;3.88;;;15.50;99.90;;;;;;5080469;28;20024;-79
2021/05/15 08:45:38;;;;;;;7.85;3.40;;;15.60;99.90;;;;;;5074932;28;20027;-78
2021/05/15 08:48:05;;;;;;;8.55;3.50;;;15.70;99.90;;;;;;5081194;28;20031;-79
2021/05/15 08:50:32;;;;;;;6.25;3.55;;;15.80;99.90;;;;;;5072884;28;20040;-79
2021/05/15 08:53:01;;;;;;;4.88;2.80;;;15.90;99.90;;;;;;5076638;28;20044;-85
2021/05/15 08:55:29;;;;;;;4.13;2.30;;;16.00;99.90;;;;;;5082421;28;20638;-85
2021/05/15 08:57:57;;;;;;;9.68;2.92;;;16.10;99.90;;;;;;5086450;28;20038;-85
2021/05/15 09:00:29;;;;;;;3.28;2.47;;;16.20;99.40;;;;;;5086264;28;20032;-83
2021/05/15 09:03:01;;;;;;;4.70;2.70;;;16.20;98.60;;;;;;5083097;28;20129;-87
2021/05/15 09:05:28;;;;;;;4.00;2.70;;;16.20;96.00;;;;;;5082530;28;20469;-84
2021/05/15 09:07:57;;;;;;;3.75;2.72;;;16.30;96.40;;;;;;5086037;28;20486;-85
2021/05/15 09:10:25;;;;;;;3.97;2.45;;;16.40;96.30;;;;;;5089635;28;20035;-84
2021/05/15 09:12:51;;;;;;;4.32;2.55;;;16.50;95.70;;;;;;5083331;28;20047;-84
2021/05/15 09:15:17;;;;;;;4.32;2.75;;;16.60;97.50;;;;;;5081308;28;20032;-84
2021/05/15 09:17:48;;;;;;;7.43;3.53;;;16.60;98.10;;;;;;5086396;28;20053;-84
2021/05/15 09:20:22;;;;;;;9.48;3.45;;;16.70;94.80;;;;;;5090500;28;20036;-84
2021/05/15 09:22:48;;;;;;;6.10;3.20;;;16.90;95.70;;;;;;5091186;28;20036;-86
2021/05/15 09:25:14;;;;;;;3.63;2.58;;;17.10;94.60;;;;;;5093052;28;20020;-84
2021/05/15 09:27:39;;;;;;;5.13;3.15;;;17.40;94.00;;;;;;5090685;28;20028;-84
2021/05/15 09:30:06;;;;;;;5.03;2.72;;;17.70;92.40;;;;;;5091263;28;20024;-84
2021/05/15 09:32:33;;;;;;;5.68;3.15;;;17.90;91.70;;;;;;5080415;28;20032;-85
2021/05/15 09:35:00;;;;;;;4.88;3.00;;;18.00;90.20;;;;;;5090526;28;20040;-85
2021/05/15 09:37:33;;;;;;;3.88;2.45;;;17.90;88.20;;;;;;5090127;28;20110;-84
2021/05/15 09:40:22;;;;;;;9.75;2.42;;;18.00;88.00;;;;;;5086292;28;20073;-85
2021/05/15 09:42:57;;;;;;;5.22;2.80;;;18.10;87.80;;;;;;5087288;28;20024;-84
2021/05/15 09:46:00;;;;;;;5.47;2.67;;;18.20;87.60;;;;;;5086203;28;20028;-82
2021/05/15 09:48:35;;;;;;;5.35;2.92;;;18.10;85.80;;;;;;5091683;28;20062;-86
2021/05/15 09:51:16;;;;;;;6.32;3.05;;;17.90;85.40;;;;;;5089906;28;20040;-83
2021/05/15 09:53:42;;;;;;;3.53;2.80;;;17.80;86.10;;;;;;5088407;28;20412;-84
2021/05/15 09:56:08;;;;;;;5.13;2.75;;;17.70;86.40;;;;;;5090624;28;20293;-84
2021/05/15 09:58:34;;;;;;;2.97;2.30;;;17.80;86.90;;;;;;5087215;28;20111;-83
2021/05/15 10:00:59;;;;;;;3.13;2.22;;;17.90;81.50;;;;;;5090761;28;20127;-82
2021/05/15 10:03:33;;;;;;;3.65;2.20;;;18.00;80.30;;;;;;5088407;28;20036;-84
2021/05/15 10:06:14;;;;;;;2.25;1.83;;;18.10;82.10;;;;;;5085248;28;20031;-84
2021/05/15 10:08:41;;;;;;;4.95;2.30;;;18.30;80.50;;;;;;5087673;28;20027;-82
2021/05/15 10:11:07;;;;;;;3.28;2.20;;;18.50;78.70;;;;;;5092070;28;20490;-83
2021/05/15 10:13:34;;;;;;;3.85;2.38;;;18.50;78.40;;;;;;5090085;28;20036;-79
2021/05/15 10:16:01;;;;;;;4.22;2.30;;;18.40;77.20;;;;;;5089702;28;20561;-82
2021/05/15 10:18:27;;;;;;;3.33;2.38;;;18.20;76.50;;;;;;5088373;28;20047;-81
2021/05/15 10:20:55;;;;;;;10.07;2.50;;;18.00;77.50;;;;;;5090079;28;20475;-80
2021/05/15 10:23:35;;;;;;;4.63;2.22;;;17.70;76.60;;;;;;5088171;28;20028;-81
2021/05/15 10:26:06;;;;;;;2.85;2.25;;;17.50;80.00;;;;;;5088817;28;20100;-81
2021/05/15 10:28:33;;;;;;;;;;;17.40;84.30;;;;;;5089452;28;20525;-81
2021/05/15 10:31:18;;;;;;;4.00;2.28;;;17.20;90.20;;;;;;5089632;28;19991;-81
2021/05/15 10:33:46;;;;;;;4.25;2.60;;;17.00;92.50;;;;;;5084495;28;20131;-74
2021/05/15 10:36:22;;;;;;;3.78;2.30;;;16.80;95.40;;;;;;5077426;28;20032;-76
2021/05/15 10:38:50;;;;;;;4.05;2.28;;;16.70;94.50;;;;;;5082419;28;20107;-74
2021/05/15 10:41:18;;;;;;;7.55;2.55;;;16.80;99.90;;;;;;5085204;28;20694;-80
2021/05/15 10:43:48;;;;;;;3.03;2.13;;;16.90;99.90;;;;;;5084269;28;20022;-82
2021/05/15 10:46:24;;;;;;;3.08;1.83;;;17.00;93.30;;;;;;5085981;28;20020;-80
2021/05/15 10:48:57;;;;;;;4.32;2.13;;;17.20;91.60;;;;;;5085056;28;20118;-80
2021/05/15 10:51:44;;;;;;;3.13;2.30;;;17.30;91.70;;;;;;5086429;28;20253;-81
2021/05/15 10:54:12;;;;;;;2.92;2.17;;;17.30;92.40;;;;;;5089170;28;20676;-75
2021/05/15 10:56:38;;;;;;;4.05;2.50;;;17.30;91.30;;;;;;5086488;28;20035;-86
2021/05/15 10:59:16;;;;;;;3.22;2.33;;;17.30;91.70;;;;;;5089739;28;20025;-88
2021/05/15 11:01:51;;;;;;;2.83;2.05;;;17.30;91.80;;;;;;5088779;28;20123;-88
2021/05/15 11:04:21;;;;;;;3.95;2.30;;;17.40;91.40;;;;;;5088892;28;20028;-87
2021/05/15 11:07:03;;;;;;;3.72;2.20;;;17.60;91.20;;;;;;5086501;28;20101;-89
2021/05/15 11:09:31;;;;;;;3.45;2.40;;;17.70;91.10;;;;;;5089205;28;20024;-86
2021/05/15 11:12:04;;;;;;;2.83;2.45;;;17.80;91.00;;;;;;5088931;28;20061;-89
2021/05/15 11:14:37;;;;;;;3.28;2.10;;;17.90;88.60;;;;;;5086845;28;20031;-83
2021/05/15 11:17:13;;;;;;;2.75;1.98;;;17.90;90.30;;;;;;5087622;28;20041;-81
2021/05/15 11:19:47;;;;;;;4.35;1.65;;;17.90;85.60;;;;;;5087343;28;20024;-81
2021/05/15 11:22:12;;;;;;;2.85;1.80;;;17.90;87.50;;;;;;5088342;28;20035;-79
2021/05/15 11:24:38;;;;;;;3.10;1.90;;;17.90;83.80;;;;;;5088278;28;20478;-81
2021/05/15 11:27:17;;;;;;;1.83;1.30;;;17.80;84.80;;;;;;5088059;28;20093;-81
2021/05/15 11:29:45;;;;;;;1.40;1.02;;;17.70;82.70;;;;;;5085544;28;20034;-81
2021/05/15 11:32:13;;;;;;;1.23;1.02;;;17.60;79.70;;;;;;5087556;28;20027;-82
2021/05/15 11:34:40;;;;;;;5.05;1.00;;;17.40;81.50;;;;;;5087020;28;20129;-82
2021/05/15 11:37:08;;;;;;;1.73;1.17;;;17.20;81.30;;;;;;5087820;28;20028;-81
2021/05/15 11:39:34;;;;;;;0.63;0.63;;;17.20;80.10;;;;;;5087704;28;20085;-81
2021/05/15 11:42:07;;;;;;;3.20;0.60;;;17.10;80.00;;;;;;5086671;28;20027;-80
2021/05/15 11:44:33;;;;;;;4.57;0.70;;;17.10;80.80;;;;;;5086098;28;20095;-80
2021/05/15 11:47:00;;;;;;;0.80;0.77;;;17.00;82.30;;;;;;5086111;28;20043;-79
2021/05/15 11:49:29;;;;;;;2.00;0.80;;;17.00;82.80;;;;;;5087376;28;20639;-80
2021/05/15 11:52:09;;;;;;;2.13;0.70;;;16.90;84.00;;;;;;5087435;28;20518;-80
2021/05/15 11:54:39;;;;;;;1.13;0.50;;;16.80;85.50;;;;;;5085142;28;20020;-80
2021/05/15 11:57:04;;;;;;;0.52;0.50;;;16.60;84.80;;;;;;5087472;28;20032;-80
2021/05/15 11:59:31;;;;;;;0.55;0.50;;;16.60;89.10;;;;;;5087902;28;20020;-79
2021/05/15 12:01:57;;;;;;;0.50;0.50;;;16.60;92.50;;;;;;5087692;28;20024;-78
2021/05/15 12:04:28;;;;;;;1.40;0.63;;;16.70;92.70;;;;;;5086439;28;20028;-76
2021/05/15 12:06:55;;;;;;;2.10;0.70;;;17.00;90.30;;;;;;5087163;28;20066;-80
2021/05/15 12:09:22;;;;;;;0.95;0.60;;;17.30;88.40;;;;;;5087732;28;20016;-80
2021/05/15 12:11:55;;;;;;;1.30;0.63;;;17.50;84.40;;;;;;5087180;28;20077;-80
2021/05/15 12:14:20;;;;;;;2.83;1.25;;;17.70;90.70;;;;;;5086797;28;20020;-80
2021/05/15 12:16:46;;;;;;;2.25;0.50;;;18.30;83.70;;;;;;5087258;28;20433;-79
2021/05/15 12:19:23;;;;;;;0.35;0.35;;;19.90;85.50;;;;;;5085624;28;20031;-76
2021/05/15 12:22:00;;;;;;;0.47;0.38;;;22.40;68.20;;;;;;5076860;28;20460;-79
2021/05/15 12:24:37;;;;;;;2.10;0.30;;;24.30;58.20;;;;;;5085802;28;20167;-77
2021/05/15 12:27:14;;;;;;;0.43;0.43;;;25.50;56.30;;;;;;5087956;28;20093;-78
2021/05/15 12:29:41;;;;;;;2.17;0.90;;;26.80;52.50;;;;;;5077469;28;20035;-78
2021/05/15 12:32:08;;;;;;;0.40;0.40;;;27.50;48.50;;;;;;5087769;28;20024;-79
2021/05/15 12:34:33;;;;;;;0.43;0.40;;;28.20;49.70;;;;;;5087415;28;20031;-76
2021/05/15 12:36:59;;;;;;;0.80;0.43;;;29.00;46.20;;;;;;5086301;28;20039;-80
2021/05/15 12:40:00;;;;;;;0.82;0.55;;;29.50;42.20;;;;;;5088054;28;20115;-81
2021/05/15 12:42:31;;;;;;;;;;;29.90;43.50;;;;;;5083993;28;20059;-82
2021/05/15 12:45:10;;;;;;;0.52;0.52;;;30.60;43.20;;;;;;5087418;28;19915;-79
2021/05/15 12:47:37;;;;;;;0.52;0.50;;;30.70;38.60;;;;;;5080431;28;20020;-82
2021/05/15 12:50:27;;;;;;;0.50;0.50;;;30.90;38.40;;;;;;5087313;28;20065;-76
2021/05/15 12:53:10;;;;;;;1.95;0.60;;;29.40;41.70;;;;;;5086462;28;20108;-74